sensor_id;sensor_type;location;lat;lon;timestamp;P1;durP1;ratioP1;P2;durP2;ratioP2
59074;SDS011;44860;53.020;6.738;2024-03-17T00:01:04;10.18;;;3.50;;
59074;SDS011;44860;53.020;6.738;2024-03-17T00:03:30;9.82;;;3.25;;
59074;SDS011;44860;53.020;6.738;2024-03-17T00:05:59;7.05;;;3.00;;
59074;SDS011;44860;53.020;6.738;2024-03-17T00:08:26;8.13;;;3.35;;
59074;SDS011;44860;53.020;6.738;2024-03-17T00:10:52;8.70;;;3.38;;
59074;SDS011;44860;53.020;6.738;2024-03-17T00:13:21;9.25;;;3.38;;
59074;SDS011;44860;53.020;6.738;2024-03-17T00:15:48;11.88;;;3.60;;
59074;SDS011;44860;53.020;6.738;2024-03-17T00:18:14;7.57;;;3.28;;
59074;SDS011;44860;53.020;6.738;2024-03-17T00:20:40;9.63;;;3.25;;
59074;SDS011;44860;53.020;6.738;2024-03-17T00:23:06;8.63;;;3.47;;
59074;SDS011;44860;53.020;6.738;2024-03-17T00:25:33;7.78;;;3.10;;
59074;SDS011;44860;53.020;6.738;2024-03-17T00:27:59;10.10;;;3.28;;
59074;SDS011;44860;53.020;6.738;2024-03-17T00:30:26;9.18;;;2.85;;
59074;SDS011;44860;53.020;6.738;2024-03-17T00:32:52;10.43;;;3.00;;
59074;SDS011;44860;53.020;6.738;2024-03-17T00:35:17;8.50;;;2.63;;
59074;SDS011;44860;53.020;6.738;2024-03-17T00:37:46;8.23;;;2.75;;
59074;SDS011;44860;53.020;6.738;2024-03-17T00:40:12;6.18;;;2.65;;
59074;SDS011;44860;53.020;6.738;2024-03-17T00:42:39;6.95;;;2.75;;
59074;SDS011;44860;53.020;6.738;2024-03-17T00:45:05;5.18;;;2.28;;
59074;SDS011;44860;53.020;6.738;2024-03-17T00:47:32;6.65;;;2.70;;
59074;SDS011;44860;53.020;6.738;2024-03-17T00:49:58;6.93;;;2.60;;
59074;SDS011;44860;53.020;6.738;2024-03-17T00:52:23;5.93;;;2.53;;
59074;SDS011;44860;53.020;6.738;2024-03-17T00:54:49;6.25;;;2.42;;
59074;SDS011;44860;53.020;6.738;2024-03-17T00:57:15;6.93;;;2.67;;
59074;SDS011;44860;53.020;6.738;2024-03-17T00:59:41;6.68;;;2.72;;
59074;SDS011;44860;53.020;6.738;2024-03-17T01:02:10;8.70;;;3.00;;
59074;SDS011;44860;53.020;6.738;2024-03-17T01:04:39;6.30;;;2.90;;
59074;SDS011;44860;53.020;6.738;2024-03-17T01:07:05;6.55;;;2.80;;
59074;SDS011;44860;53.020;6.738;2024-03-17T01:09:31;6.88;;;2.75;;
59074;SDS011;44860;53.020;6.738;2024-03-17T01:11:57;6.18;;;3.00;;
59074;SDS011;44860;53.020;6.738;2024-03-17T01:14:22;6.85;;;3.00;;
59074;SDS011;44860;53.020;6.738;2024-03-17T01:16:50;6.60;;;2.80;;
59074;SDS011;44860;53.020;6.738;2024-03-17T01:19:16;7.03;;;2.65;;
59074;SDS011;44860;53.020;6.738;2024-03-17T01:21:42;5.35;;;2.90;;
59074;SDS011;44860;53.020;6.738;2024-03-17T01:24:08;6.20;;;3.08;;
59074;SDS011;44860;53.020;6.738;2024-03-17T01:26:33;6.82;;;2.70;;
59074;SDS011;44860;53.020;6.738;2024-03-17T01:28:59;8.40;;;3.30;;
59074;SDS011;44860;53.020;6.738;2024-03-17T01:31:25;8.43;;;2.70;;
59074;SDS011;44860;53.020;6.738;2024-03-17T01:33:50;5.45;;;2.47;;
59074;SDS011;44860;53.020;6.738;2024-03-17T01:36:16;5.60;;;2.55;;
59074;SDS011;44860;53.020;6.738;2024-03-17T01:38:41;7.53;;;2.55;;
59074;SDS011;44860;53.020;6.738;2024-03-17T01:41:07;8.90;;;2.65;;
59074;SDS011;44860;53.020;6.738;2024-03-17T01:43:33;8.50;;;2.38;;
59074;SDS011;44860;53.020;6.738;2024-03-17T01:45:58;9.90;;;2.63;;
59074;SDS011;44860;53.020;6.738;2024-03-17T01:48:26;4.53;;;2.30;;
59074;SDS011;44860;53.020;6.738;2024-03-17T01:50:52;5.55;;;2.40;;
59074;SDS011;44860;53.020;6.738;2024-03-17T01:53:20;4.93;;;2.30;;
59074;SDS011;44860;53.020;6.738;2024-03-17T01:55:46;9.25;;;2.70;;
59074;SDS011;44860;53.020;6.738;2024-03-17T01:58:12;6.13;;;2.45;;
59074;SDS011;44860;53.020;6.738;2024-03-17T02:00:38;6.40;;;2.20;;
59074;SDS011;44860;53.020;6.738;2024-03-17T02:03:08;5.80;;;2.00;;
59074;SDS011;44860;53.020;6.738;2024-03-17T02:05:34;5.80;;;2.10;;
59074;SDS011;44860;53.020;6.738;2024-03-17T02:08:03;5.88;;;2.50;;
59074;SDS011;44860;53.020;6.738;2024-03-17T02:10:32;5.65;;;1.90;;
59074;SDS011;44860;53.020;6.738;2024-03-17T02:13:00;7.05;;;2.55;;
59074;SDS011;44860;53.020;6.738;2024-03-17T02:15:28;5.22;;;2.13;;
59074;SDS011;44860;53.020;6.738;2024-03-17T02:17:54;4.78;;;2.17;;
59074;SDS011;44860;53.020;6.738;2024-03-17T02:20:20;5.78;;;2.40;;
59074;SDS011;44860;53.020;6.738;2024-03-17T02:22:50;5.30;;;2.15;;
59074;SDS011;44860;53.020;6.738;2024-03-17T02:25:15;7.00;;;2.40;;
59074;SDS011;44860;53.020;6.738;2024-03-17T02:27:41;7.10;;;2.30;;
59074;SDS011;44860;53.020;6.738;2024-03-17T02:30:07;6.93;;;2.00;;
59074;SDS011;44860;53.020;6.738;2024-03-17T02:32:34;6.50;;;2.47;;
59074;SDS011;44860;53.020;6.738;2024-03-17T02:35:00;8.77;;;2.53;;
59074;SDS011;44860;53.020;6.738;2024-03-17T02:37:26;5.93;;;2.78;;
59074;SDS011;44860;53.020;6.738;2024-03-17T02:39:52;6.43;;;2.30;;
59074;SDS011;44860;53.020;6.738;2024-03-17T02:42:18;6.47;;;2.47;;
59074;SDS011;44860;53.020;6.738;2024-03-17T02:44:44;4.90;;;2.60;;
59074;SDS011;44860;53.020;6.738;2024-03-17T02:47:11;7.60;;;2.22;;
59074;SDS011;44860;53.020;6.738;2024-03-17T02:49:39;7.90;;;3.20;;
59074;SDS011;44860;53.020;6.738;2024-03-17T02:52:08;6.53;;;2.63;;
59074;SDS011;44860;53.020;6.738;2024-03-17T02:54:35;6.55;;;2.75;;
59074;SDS011;44860;53.020;6.738;2024-03-17T02:57:02;7.45;;;3.08;;
59074;SDS011;44860;53.020;6.738;2024-03-17T02:59:29;7.60;;;3.10;;
59074;SDS011;44860;53.020;6.738;2024-03-17T03:01:55;7.00;;;3.17;;
59074;SDS011;44860;53.020;6.738;2024-03-17T03:04:20;5.70;;;2.95;;
59074;SDS011;44860;53.020;6.738;2024-03-17T03:06:46;7.75;;;3.60;;
59074;SDS011;44860;53.020;6.738;2024-03-17T03:09:13;8.57;;;3.90;;
59074;SDS011;44860;53.020;6.738;2024-03-17T03:11:40;9.20;;;3.47;;
59074;SDS011;44860;53.020;6.738;2024-03-17T03:14:06;11.63;;;4.28;;
59074;SDS011;44860;53.020;6.738;2024-03-17T03:16:32;11.40;;;4.10;;
59074;SDS011;44860;53.020;6.738;2024-03-17T03:18:58;12.73;;;4.57;;
59074;SDS011;44860;53.020;6.738;2024-03-17T03:21:24;7.60;;;4.03;;
59074;SDS011;44860;53.020;6.738;2024-03-17T03:23:50;8.68;;;3.80;;
59074;SDS011;44860;53.020;6.738;2024-03-17T03:26:16;8.90;;;4.00;;
59074;SDS011;44860;53.020;6.738;2024-03-17T03:28:43;9.90;;;4.10;;
59074;SDS011;44860;53.020;6.738;2024-03-17T03:31:12;10.35;;;4.90;;
59074;SDS011;44860;53.020;6.738;2024-03-17T03:33:41;11.45;;;4.43;;
59074;SDS011;44860;53.020;6.738;2024-03-17T03:36:11;9.07;;;4.30;;
59074;SDS011;44860;53.020;6.738;2024-03-17T03:38:38;10.18;;;4.55;;
59074;SDS011;44860;53.020;6.738;2024-03-17T03:41:10;9.45;;;4.35;;
59074;SDS011;44860;53.020;6.738;2024-03-17T03:43:38;11.38;;;4.47;;
59074;SDS011;44860;53.020;6.738;2024-03-17T03:46:04;10.05;;;4.70;;
59074;SDS011;44860;53.020;6.738;2024-03-17T03:48:30;10.85;;;4.90;;
59074;SDS011;44860;53.020;6.738;2024-03-17T03:50:57;13.30;;;5.20;;
59074;SDS011;44860;53.020;6.738;2024-03-17T03:53:23;9.35;;;4.50;;
59074;SDS011;44860;53.020;6.738;2024-03-17T03:55:49;14.40;;;5.18;;
59074;SDS011;44860;53.020;6.738;2024-03-17T03:58:15;12.82;;;5.28;;
59074;SDS011;44860;53.020;6.738;2024-03-17T04:00:41;12.35;;;5.20;;
59074;SDS011;44860;53.020;6.738;2024-03-17T04:03:06;10.32;;;5.03;;
59074;SDS011;44860;53.020;6.738;2024-03-17T04:05:32;16.60;;;5.32;;
59074;SDS011;44860;53.020;6.738;2024-03-17T04:07:59;12.50;;;5.32;;
59074;SDS011;44860;53.020;6.738;2024-03-17T04:10:25;12.55;;;5.05;;
59074;SDS011;44860;53.020;6.738;2024-03-17T04:12:52;10.65;;;5.68;;
59074;SDS011;44860;53.020;6.738;2024-03-17T04:15:18;14.93;;;6.20;;
59074;SDS011;44860;53.020;6.738;2024-03-17T04:17:44;11.90;;;5.97;;
59074;SDS011;44860;53.020;6.738;2024-03-17T04:20:10;12.68;;;6.15;;
59074;SDS011;44860;53.020;6.738;2024-03-17T04:22:42;13.85;;;6.68;;
59074;SDS011;44860;53.020;6.738;2024-03-17T04:25:08;15.02;;;6.47;;
59074;SDS011;44860;53.020;6.738;2024-03-17T04:27:34;15.40;;;6.57;;
59074;SDS011;44860;53.020;6.738;2024-03-17T04:30:00;13.43;;;6.78;;
59074;SDS011;44860;53.020;6.738;2024-03-17T04:32:26;13.75;;;6.70;;
59074;SDS011;44860;53.020;6.738;2024-03-17T04:34:52;14.43;;;6.60;;
59074;SDS011;44860;53.020;6.738;2024-03-17T04:37:18;15.02;;;7.05;;
59074;SDS011;44860;53.020;6.738;2024-03-17T04:39:44;15.10;;;6.63;;
59074;SDS011;44860;53.020;6.738;2024-03-17T04:42:11;15.77;;;6.80;;
59074;SDS011;44860;53.020;6.738;2024-03-17T04:44:41;15.73;;;6.75;;
59074;SDS011;44860;53.020;6.738;2024-03-17T04:47:07;17.88;;;6.53;;
59074;SDS011;44860;53.020;6.738;2024-03-17T04:49:37;13.45;;;6.57;;
59074;SDS011;44860;53.020;6.738;2024-03-17T04:52:03;10.32;;;6.15;;
59074;SDS011;44860;53.020;6.738;2024-03-17T04:54:32;12.32;;;6.50;;
59074;SDS011;44860;53.020;6.738;2024-03-17T04:56:59;11.48;;;6.65;;
59074;SDS011;44860;53.020;6.738;2024-03-17T04:59:25;13.43;;;6.32;;
59074;SDS011;44860;53.020;6.738;2024-03-17T05:01:51;10.98;;;6.07;;
59074;SDS011;44860;53.020;6.738;2024-03-17T05:04:17;15.98;;;6.78;;
59074;SDS011;44860;53.020;6.738;2024-03-17T05:06:43;14.85;;;6.50;;
59074;SDS011;44860;53.020;6.738;2024-03-17T05:09:18;13.07;;;6.20;;
59074;SDS011;44860;53.020;6.738;2024-03-17T05:11:44;12.10;;;6.45;;
59074;SDS011;44860;53.020;6.738;2024-03-17T05:14:10;16.15;;;6.63;;
59074;SDS011;44860;53.020;6.738;2024-03-17T05:16:36;13.90;;;6.40;;
59074;SDS011;44860;53.020;6.738;2024-03-17T05:19:02;14.45;;;6.10;;
59074;SDS011;44860;53.020;6.738;2024-03-17T05:21:28;13.95;;;6.25;;
59074;SDS011;44860;53.020;6.738;2024-03-17T05:23:55;13.88;;;5.93;;
59074;SDS011;44860;53.020;6.738;2024-03-17T05:26:25;12.82;;;6.43;;
59074;SDS011;44860;53.020;6.738;2024-03-17T05:28:51;12.25;;;6.05;;
59074;SDS011;44860;53.020;6.738;2024-03-17T05:31:16;13.68;;;5.80;;
59074;SDS011;44860;53.020;6.738;2024-03-17T05:33:43;13.75;;;6.15;;
59074;SDS011;44860;53.020;6.738;2024-03-17T05:36:09;12.77;;;6.45;;
59074;SDS011;44860;53.020;6.738;2024-03-17T05:38:35;12.60;;;6.30;;
59074;SDS011;44860;53.020;6.738;2024-03-17T05:41:05;16.65;;;6.70;;
59074;SDS011;44860;53.020;6.738;2024-03-17T05:43:32;15.50;;;6.80;;
59074;SDS011;44860;53.020;6.738;2024-03-17T05:46:07;10.57;;;6.55;;
59074;SDS011;44860;53.020;6.738;2024-03-17T05:48:34;12.98;;;6.80;;
59074;SDS011;44860;53.020;6.738;2024-03-17T05:51:10;12.52;;;7.00;;
59074;SDS011;44860;53.020;6.738;2024-03-17T05:53:37;16.88;;;7.40;;
59074;SDS011;44860;53.020;6.738;2024-03-17T05:56:09;13.77;;;6.93;;
59074;SDS011;44860;53.020;6.738;2024-03-17T05:58:36;16.25;;;7.45;;
59074;SDS011;44860;53.020;6.738;2024-03-17T06:01:02;13.93;;;7.72;;
59074;SDS011;44860;53.020;6.738;2024-03-17T06:03:28;14.32;;;6.97;;
59074;SDS011;44860;53.020;6.738;2024-03-17T06:05:54;12.65;;;7.55;;
59074;SDS011;44860;53.020;6.738;2024-03-17T06:08:20;15.60;;;8.10;;
59074;SDS011;44860;53.020;6.738;2024-03-17T06:10:47;15.05;;;7.53;;
59074;SDS011;44860;53.020;6.738;2024-03-17T06:13:14;17.17;;;7.22;;
59074;SDS011;44860;53.020;6.738;2024-03-17T06:15:43;13.55;;;7.60;;
59074;SDS011;44860;53.020;6.738;2024-03-17T06:18:11;14.93;;;7.60;;
59074;SDS011;44860;53.020;6.738;2024-03-17T06:20:42;13.77;;;7.18;;
59074;SDS011;44860;53.020;6.738;2024-03-17T06:23:09;13.55;;;7.90;;
59074;SDS011;44860;53.020;6.738;2024-03-17T06:25:39;12.68;;;7.20;;
59074;SDS011;44860;53.020;6.738;2024-03-17T06:28:09;15.55;;;8.32;;
59074;SDS011;44860;53.020;6.738;2024-03-17T06:30:45;14.27;;;7.32;;
59074;SDS011;44860;53.020;6.738;2024-03-17T06:33:19;11.25;;;6.72;;
59074;SDS011;44860;53.020;6.738;2024-03-17T06:35:45;16.00;;;6.97;;
59074;SDS011;44860;53.020;6.738;2024-03-17T06:38:12;12.63;;;6.45;;
59074;SDS011;44860;53.020;6.738;2024-03-17T06:40:38;12.40;;;6.32;;
59074;SDS011;44860;53.020;6.738;2024-03-17T06:43:04;13.07;;;6.32;;
59074;SDS011;44860;53.020;6.738;2024-03-17T06:45:30;12.48;;;6.15;;
59074;SDS011;44860;53.020;6.738;2024-03-17T06:47:56;15.07;;;6.85;;
59074;SDS011;44860;53.020;6.738;2024-03-17T06:50:22;18.02;;;6.43;;
59074;SDS011;44860;53.020;6.738;2024-03-17T06:52:48;18.58;;;6.60;;
59074;SDS011;44860;53.020;6.738;2024-03-17T06:55:14;9.63;;;5.68;;
59074;SDS011;44860;53.020;6.738;2024-03-17T06:57:42;13.80;;;5.65;;
59074;SDS011;44860;53.020;6.738;2024-03-17T07:00:11;15.40;;;5.72;;
59074;SDS011;44860;53.020;6.738;2024-03-17T07:02:42;10.52;;;5.30;;
59074;SDS011;44860;53.020;6.738;2024-03-17T07:05:12;15.05;;;5.55;;
59074;SDS011;44860;53.020;6.738;2024-03-17T07:07:41;11.48;;;5.63;;
59074;SDS011;44860;53.020;6.738;2024-03-17T07:10:08;14.43;;;6.05;;
59074;SDS011;44860;53.020;6.738;2024-03-17T07:12:36;14.05;;;5.93;;
59074;SDS011;44860;53.020;6.738;2024-03-17T07:15:02;12.73;;;5.57;;
59074;SDS011;44860;53.020;6.738;2024-03-17T07:17:28;13.25;;;5.65;;
59074;SDS011;44860;53.020;6.738;2024-03-17T07:19:54;12.70;;;5.85;;
59074;SDS011;44860;53.020;6.738;2024-03-17T07:22:20;14.65;;;5.90;;
59074;SDS011;44860;53.020;6.738;2024-03-17T07:24:47;16.42;;;6.28;;
59074;SDS011;44860;53.020;6.738;2024-03-17T07:27:15;12.30;;;5.45;;
59074;SDS011;44860;53.020;6.738;2024-03-17T07:29:40;16.67;;;5.30;;
59074;SDS011;44860;53.020;6.738;2024-03-17T07:32:06;15.45;;;5.15;;
59074;SDS011;44860;53.020;6.738;2024-03-17T07:34:32;12.15;;;6.07;;
59074;SDS011;44860;53.020;6.738;2024-03-17T07:37:00;12.30;;;5.30;;
59074;SDS011;44860;53.020;6.738;2024-03-17T07:39:29;16.05;;;5.28;;
59074;SDS011;44860;53.020;6.738;2024-03-17T07:41:57;13.93;;;5.57;;
59074;SDS011;44860;53.020;6.738;2024-03-17T07:44:24;11.65;;;4.82;;
59074;SDS011;44860;53.020;6.738;2024-03-17T07:46:50;13.00;;;4.50;;
59074;SDS011;44860;53.020;6.738;2024-03-17T07:49:16;13.48;;;4.60;;
59074;SDS011;44860;53.020;6.738;2024-03-17T07:51:42;15.00;;;4.97;;
59074;SDS011;44860;53.020;6.738;2024-03-17T07:54:09;9.00;;;4.15;;
59074;SDS011;44860;53.020;6.738;2024-03-17T07:56:34;12.70;;;4.93;;
59074;SDS011;44860;53.020;6.738;2024-03-17T07:59:00;10.05;;;4.63;;
59074;SDS011;44860;53.020;6.738;2024-03-17T08:01:26;16.77;;;4.78;;
59074;SDS011;44860;53.020;6.738;2024-03-17T08:03:51;10.73;;;4.68;;
59074;SDS011;44860;53.020;6.738;2024-03-17T08:06:21;16.23;;;4.93;;
59074;SDS011;44860;53.020;6.738;2024-03-17T08:08:47;15.85;;;4.32;;
59074;SDS011;44860;53.020;6.738;2024-03-17T08:11:13;12.30;;;4.65;;
59074;SDS011;44860;53.020;6.738;2024-03-17T08:13:38;14.07;;;4.80;;
59074;SDS011;44860;53.020;6.738;2024-03-17T08:16:05;9.13;;;4.38;;
59074;SDS011;44860;53.020;6.738;2024-03-17T08:18:32;11.40;;;4.10;;
59074;SDS011;44860;53.020;6.738;2024-03-17T08:20:59;13.50;;;4.72;;
59074;SDS011;44860;53.020;6.738;2024-03-17T08:23:25;11.82;;;4.65;;
59074;SDS011;44860;53.020;6.738;2024-03-17T08:25:52;13.02;;;4.82;;
59074;SDS011;44860;53.020;6.738;2024-03-17T08:28:22;12.70;;;5.25;;
59074;SDS011;44860;53.020;6.738;2024-03-17T08:30:55;12.48;;;5.05;;
59074;SDS011;44860;53.020;6.738;2024-03-17T08:33:28;12.85;;;4.43;;
59074;SDS011;44860;53.020;6.738;2024-03-17T08:35:59;10.95;;;4.55;;
59074;SDS011;44860;53.020;6.738;2024-03-17T08:38:34;16.92;;;4.80;;
59074;SDS011;44860;53.020;6.738;2024-03-17T08:41:02;13.80;;;4.45;;
59074;SDS011;44860;53.020;6.738;2024-03-17T08:43:32;12.32;;;4.63;;
59074;SDS011;44860;53.020;6.738;2024-03-17T08:46:05;10.77;;;4.50;;
59074;SDS011;44860;53.020;6.738;2024-03-17T08:48:36;12.55;;;4.78;;
59074;SDS011;44860;53.020;6.738;2024-03-17T08:51:03;12.88;;;4.53;;
59074;SDS011;44860;53.020;6.738;2024-03-17T08:53:30;11.13;;;4.75;;
59074;SDS011;44860;53.020;6.738;2024-03-17T08:55:56;9.60;;;4.60;;
59074;SDS011;44860;53.020;6.738;2024-03-17T08:58:24;13.43;;;4.70;;
59074;SDS011;44860;53.020;6.738;2024-03-17T09:00:51;13.52;;;4.85;;
59074;SDS011;44860;53.020;6.738;2024-03-17T09:03:17;11.20;;;4.80;;
59074;SDS011;44860;53.020;6.738;2024-03-17T09:05:44;12.25;;;4.80;;
59074;SDS011;44860;53.020;6.738;2024-03-17T09:08:15;11.43;;;5.03;;
59074;SDS011;44860;53.020;6.738;2024-03-17T09:10:45;9.88;;;4.72;;
59074;SDS011;44860;53.020;6.738;2024-03-17T09:13:33;14.43;;;5.45;;
59074;SDS011;44860;53.020;6.738;2024-03-17T09:15:58;12.63;;;5.40;;
59074;SDS011;44860;53.020;6.738;2024-03-17T09:18:29;17.70;;;6.18;;
59074;SDS011;44860;53.020;6.738;2024-03-17T09:21:02;14.45;;;5.88;;
59074;SDS011;44860;53.020;6.738;2024-03-17T09:23:28;13.27;;;5.72;;
59074;SDS011;44860;53.020;6.738;2024-03-17T09:25:58;12.10;;;5.63;;
59074;SDS011;44860;53.020;6.738;2024-03-17T09:28:34;13.15;;;5.75;;
59074;SDS011;44860;53.020;6.738;2024-03-17T09:31:01;11.70;;;6.30;;
59074;SDS011;44860;53.020;6.738;2024-03-17T09:33:28;14.68;;;5.70;;
59074;SDS011;44860;53.020;6.738;2024-03-17T09:38:25;12.77;;;6.65;;
59074;SDS011;44860;53.020;6.738;2024-03-17T09:40:52;13.43;;;6.70;;
59074;SDS011;44860;53.020;6.738;2024-03-17T09:43:21;17.25;;;7.20;;
59074;SDS011;44860;53.020;6.738;2024-03-17T09:45:48;13.68;;;7.30;;
59074;SDS011;44860;53.020;6.738;2024-03-17T09:48:14;14.20;;;7.05;;
59074;SDS011;44860;53.020;6.738;2024-03-17T09:50:44;16.48;;;6.45;;
59074;SDS011;44860;53.020;6.738;2024-03-17T09:53:16;14.98;;;6.90;;
59074;SDS011;44860;53.020;6.738;2024-03-17T09:55:45;13.30;;;6.72;;
59074;SDS011;44860;53.020;6.738;2024-03-17T09:58:15;12.90;;;7.07;;
59074;SDS011;44860;53.020;6.738;2024-03-17T10:00:42;11.00;;;6.82;;
59074;SDS011;44860;53.020;6.738;2024-03-17T10:03:08;13.40;;;6.82;;
59074;SDS011;44860;53.020;6.738;2024-03-17T10:05:34;12.07;;;7.15;;
59074;SDS011;44860;53.020;6.738;2024-03-17T10:08:00;13.32;;;7.35;;
59074;SDS011;44860;53.020;6.738;2024-03-17T10:10:26;13.45;;;6.60;;
59074;SDS011;44860;53.020;6.738;2024-03-17T10:12:52;14.23;;;7.50;;
59074;SDS011;44860;53.020;6.738;2024-03-17T10:15:18;14.45;;;7.63;;
59074;SDS011;44860;53.020;6.738;2024-03-17T10:17:48;14.88;;;7.35;;
59074;SDS011;44860;53.020;6.738;2024-03-17T10:20:18;10.90;;;6.93;;
59074;SDS011;44860;53.020;6.738;2024-03-17T10:23:08;12.43;;;7.65;;
59074;SDS011;44860;53.020;6.738;2024-03-17T10:25:38;13.15;;;7.30;;
59074;SDS011;44860;53.020;6.738;2024-03-17T10:28:09;13.95;;;8.00;;
59074;SDS011;44860;53.020;6.738;2024-03-17T10:30:36;14.40;;;7.95;;
59074;SDS011;44860;53.020;6.738;2024-03-17T10:33:02;14.93;;;8.70;;
59074;SDS011;44860;53.020;6.738;2024-03-17T10:35:33;11.73;;;7.65;;
59074;SDS011;44860;53.020;6.738;2024-03-17T10:38:03;15.40;;;9.05;;
59074;SDS011;44860;53.020;6.738;2024-03-17T10:40:30;13.07;;;8.05;;
59074;SDS011;44860;53.020;6.738;2024-03-17T10:42:58;11.63;;;8.38;;
59074;SDS011;44860;53.020;6.738;2024-03-17T10:45:26;14.20;;;10.15;;
59074;SDS011;44860;53.020;6.738;2024-03-17T10:47:55;11.98;;;8.60;;
59074;SDS011;44860;53.020;6.738;2024-03-17T10:50:25;17.02;;;8.55;;
59074;SDS011;44860;53.020;6.738;2024-03-17T10:52:55;15.25;;;9.02;;
59074;SDS011;44860;53.020;6.738;2024-03-17T10:55:27;14.98;;;8.80;;
59074;SDS011;44860;53.020;6.738;2024-03-17T10:58:00;15.90;;;9.82;;
59074;SDS011;44860;53.020;6.738;2024-03-17T11:00:29;14.93;;;9.57;;
59074;SDS011;44860;53.020;6.738;2024-03-17T11:02:57;13.27;;;9.25;;
59074;SDS011;44860;53.020;6.738;2024-03-17T11:05:24;15.55;;;9.68;;
59074;SDS011;44860;53.020;6.738;2024-03-17T11:07:55;14.43;;;9.52;;
59074;SDS011;44860;53.020;6.738;2024-03-17T11:10:29;15.02;;;10.02;;
59074;SDS011;44860;53.020;6.738;2024-03-17T11:13:00;13.05;;;9.90;;
59074;SDS011;44860;53.020;6.738;2024-03-17T11:20:33;14.85;;;10.57;;
59074;SDS011;44860;53.020;6.738;2024-03-17T11:22:59;15.18;;;10.25;;
59074;SDS011;44860;53.020;6.738;2024-03-17T11:27:52;13.57;;;10.40;;
59074;SDS011;44860;53.020;6.738;2024-03-17T11:46:41;14.48;;;10.45;;
59074;SDS011;44860;53.020;6.738;2024-03-17T11:49:27;14.75;;;10.43;;
59074;SDS011;44860;53.020;6.738;2024-03-17T11:51:57;13.63;;;10.48;;
59074;SDS011;44860;53.020;6.738;2024-03-17T11:54:32;13.50;;;10.23;;
59074;SDS011;44860;53.020;6.738;2024-03-17T11:57:04;14.25;;;10.43;;
59074;SDS011;44860;53.020;6.738;2024-03-17T11:59:31;13.90;;;10.80;;
59074;SDS011;44860;53.020;6.738;2024-03-17T12:01:57;14.38;;;11.13;;
59074;SDS011;44860;53.020;6.738;2024-03-17T12:04:24;14.63;;;11.40;;
59074;SDS011;44860;53.020;6.738;2024-03-17T12:06:54;14.45;;;11.65;;
59074;SDS011;44860;53.020;6.738;2024-03-17T12:11:51;14.95;;;12.00;;
59074;SDS011;44860;53.020;6.738;2024-03-17T12:14:30;15.95;;;11.80;;
59074;SDS011;44860;53.020;6.738;2024-03-17T12:16:57;15.43;;;11.63;;
59074;SDS011;44860;53.020;6.738;2024-03-17T12:19:24;19.83;;;12.20;;
59074;SDS011;44860;53.020;6.738;2024-03-17T12:21:51;16.98;;;12.80;;
59074;SDS011;44860;53.020;6.738;2024-03-17T12:24:19;15.00;;;11.98;;
59074;SDS011;44860;53.020;6.738;2024-03-17T12:26:51;15.70;;;12.27;;
59074;SDS011;44860;53.020;6.738;2024-03-17T12:31:53;15.27;;;12.55;;
59074;SDS011;44860;53.020;6.738;2024-03-17T12:34:20;16.60;;;12.70;;
59074;SDS011;44860;53.020;6.738;2024-03-17T12:36:47;20.10;;;13.10;;
59074;SDS011;44860;53.020;6.738;2024-03-17T12:39:19;15.95;;;12.10;;
59074;SDS011;44860;53.020;6.738;2024-03-17T12:41:46;15.70;;;12.50;;
59074;SDS011;44860;53.020;6.738;2024-03-17T12:44:33;16.58;;;11.70;;
59074;SDS011;44860;53.020;6.738;2024-03-17T12:47:01;14.65;;;11.52;;
59074;SDS011;44860;53.020;6.738;2024-03-17T12:49:31;14.18;;;11.13;;
59074;SDS011;44860;53.020;6.738;2024-03-17T12:51:59;15.27;;;12.25;;
59074;SDS011;44860;53.020;6.738;2024-03-17T12:54:26;13.77;;;11.18;;
59074;SDS011;44860;53.020;6.738;2024-03-17T12:57:09;13.73;;;11.07;;
59074;SDS011;44860;53.020;6.738;2024-03-17T12:59:55;14.05;;;11.43;;
59074;SDS011;44860;53.020;6.738;2024-03-17T13:02:43;15.30;;;11.10;;
59074;SDS011;44860;53.020;6.738;2024-03-17T13:05:18;13.93;;;11.45;;
59074;SDS011;44860;53.020;6.738;2024-03-17T13:07:48;14.00;;;10.95;;
59074;SDS011;44860;53.020;6.738;2024-03-17T13:12:42;11.40;;;10.02;;
59074;SDS011;44860;53.020;6.738;2024-03-17T13:15:08;13.23;;;10.45;;
59074;SDS011;44860;53.020;6.738;2024-03-17T13:17:36;12.25;;;9.88;;
59074;SDS011;44860;53.020;6.738;2024-03-17T13:20:02;15.07;;;10.13;;
59074;SDS011;44860;53.020;6.738;2024-03-17T13:22:29;14.35;;;10.43;;
59074;SDS011;44860;53.020;6.738;2024-03-17T13:24:54;13.07;;;9.77;;
59074;SDS011;44860;53.020;6.738;2024-03-17T13:27:20;14.98;;;10.70;;
59074;SDS011;44860;53.020;6.738;2024-03-17T13:29:49;11.80;;;10.07;;
59074;SDS011;44860;53.020;6.738;2024-03-17T13:32:15;14.23;;;10.50;;
59074;SDS011;44860;53.020;6.738;2024-03-17T13:34:43;13.07;;;10.00;;
59074;SDS011;44860;53.020;6.738;2024-03-17T13:37:09;11.95;;;9.50;;
59074;SDS011;44860;53.020;6.738;2024-03-17T13:39:35;17.35;;;9.98;;
59074;SDS011;44860;53.020;6.738;2024-03-17T13:42:01;12.35;;;9.65;;
59074;SDS011;44860;53.020;6.738;2024-03-17T13:44:29;14.20;;;10.02;;
59074;SDS011;44860;53.020;6.738;2024-03-17T13:46:56;12.70;;;10.02;;
59074;SDS011;44860;53.020;6.738;2024-03-17T13:49:23;12.05;;;9.68;;
59074;SDS011;44860;53.020;6.738;2024-03-17T13:51:49;11.70;;;10.32;;
59074;SDS011;44860;53.020;6.738;2024-03-17T13:54:15;14.27;;;9.85;;
59074;SDS011;44860;53.020;6.738;2024-03-17T13:56:40;13.00;;;9.82;;
59074;SDS011;44860;53.020;6.738;2024-03-17T13:59:06;12.90;;;9.63;;
59074;SDS011;44860;53.020;6.738;2024-03-17T14:01:33;12.40;;;9.43;;
59074;SDS011;44860;53.020;6.738;2024-03-17T14:03:59;12.73;;;10.02;;
59074;SDS011;44860;53.020;6.738;2024-03-17T14:06:24;12.23;;;10.00;;
59074;SDS011;44860;53.020;6.738;2024-03-17T14:08:50;15.00;;;10.27;;
59074;SDS011;44860;53.020;6.738;2024-03-17T14:11:16;13.90;;;10.45;;
59074;SDS011;44860;53.020;6.738;2024-03-17T14:13:41;11.88;;;9.70;;
59074;SDS011;44860;53.020;6.738;2024-03-17T14:16:07;13.40;;;10.00;;
59074;SDS011;44860;53.020;6.738;2024-03-17T14:18:33;13.52;;;10.35;;
59074;SDS011;44860;53.020;6.738;2024-03-17T14:20:58;11.98;;;9.98;;
59074;SDS011;44860;53.020;6.738;2024-03-17T14:23:24;12.32;;;10.07;;
59074;SDS011;44860;53.020;6.738;2024-03-17T14:25:50;11.75;;;9.88;;
59074;SDS011;44860;53.020;6.738;2024-03-17T14:28:16;13.70;;;9.43;;
59074;SDS011;44860;53.020;6.738;2024-03-17T14:30:41;13.75;;;9.40;;
59074;SDS011;44860;53.020;6.738;2024-03-17T14:33:07;11.02;;;9.88;;
59074;SDS011;44860;53.020;6.738;2024-03-17T14:35:33;12.55;;;9.45;;
59074;SDS011;44860;53.020;6.738;2024-03-17T14:37:59;12.13;;;9.75;;
59074;SDS011;44860;53.020;6.738;2024-03-17T14:40:25;12.18;;;9.30;;
59074;SDS011;44860;53.020;6.738;2024-03-17T14:42:53;12.52;;;10.07;;
59074;SDS011;44860;53.020;6.738;2024-03-17T14:45:20;13.05;;;9.82;;
59074;SDS011;44860;53.020;6.738;2024-03-17T14:47:49;12.85;;;9.75;;
59074;SDS011;44860;53.020;6.738;2024-03-17T14:50:17;11.05;;;9.85;;
59074;SDS011;44860;53.020;6.738;2024-03-17T14:52:43;12.80;;;10.20;;
59074;SDS011;44860;53.020;6.738;2024-03-17T14:55:10;14.13;;;9.73;;
59074;SDS011;44860;53.020;6.738;2024-03-17T14:57:36;12.68;;;9.98;;
59074;SDS011;44860;53.020;6.738;2024-03-17T15:00:06;11.95;;;10.10;;
59074;SDS011;44860;53.020;6.738;2024-03-17T15:02:41;13.85;;;9.90;;
59074;SDS011;44860;53.020;6.738;2024-03-17T15:05:13;12.80;;;10.50;;
59074;SDS011;44860;53.020;6.738;2024-03-17T15:07:46;12.48;;;10.15;;
59074;SDS011;44860;53.020;6.738;2024-03-17T15:10:13;11.07;;;9.82;;
59074;SDS011;44860;53.020;6.738;2024-03-17T15:12:49;12.13;;;9.88;;